Time;durP1;ratioP1;P1;durP2;ratioP2;P2;SDS_P1;SDS_P2;PMS_P1;PMS_P2;Temp;Humidity;BMP_temperature;BMP_pressure;BME280_temperature;BME280_humidity;BME280_pressure;Samples;Min_cycle;Max_cycle;Signal;HPM_P1;HPM_P2
2022/06/29 00:00:09;;;;;;;17.30;10.43;;;17.90;99.90;;;;;;5074733;28;20375;-59
2022/06/29 00:02:35;;;;;;;15.93;10.00;;;17.90;99.90;;;;;;5074587;28;20264;-59
2022/06/29 00:05:03;;;;;;;20.27;10.60;;;17.90;99.90;;;;;;5074183;28;20253;-59
2022/06/29 00:07:29;;;;;;;27.27;15.23;;;17.90;99.90;;;;;;5074610;28;20326;-59
2022/06/29 00:09:54;;;;;;;25.60;13.63;;;17.90;99.90;;;;;;5070860;28;20189;-59
2022/06/29 00:12:20;;;;;;;24.20;13.83;;;17.90;99.90;;;;;;5095065;28;20185;-59
2022/06/29 00:14:46;;;;;;;18.77;11.73;;;17.80;99.90;;;;;;5094300;28;20213;-59
2022/06/29 00:17:12;;;;;;;21.00;12.63;;;17.80;99.90;;;;;;5086008;28;20221;-59
2022/06/29 00:19:39;;;;;;;21.20;10.33;;;17.80;99.90;;;;;;5073931;28;20531;-59
2022/06/29 00:22:05;;;;;;;15.97;10.57;;;17.80;99.90;;;;;;5074229;28;20181;-59
2022/06/29 00:24:31;;;;;;;25.30;11.40;;;17.90;99.90;;;;;;5073811;28;20209;-59
2022/06/29 00:26:58;;;;;;;19.13;11.13;;;17.90;99.90;;;;;;5074194;28;20197;-59
2022/06/29 00:29:24;;;;;;;21.07;10.77;;;17.90;99.90;;;;;;5074216;28;20268;-59
2022/06/29 00:31:50;;;;;;;27.13;11.20;;;17.80;99.90;;;;;;5073520;28;20272;-59
2022/06/29 00:34:16;;;;;;;18.53;10.93;;;17.80;99.90;;;;;;5073530;28;20213;-59
2022/06/29 00:36:42;;;;;;;17.63;10.63;;;17.70;99.90;;;;;;5072773;28;20181;-59
2022/06/29 00:39:08;;;;;;;24.27;11.70;;;17.70;99.90;;;;;;5073655;28;20531;-60
2022/06/29 00:41:38;;;;;;;23.10;13.40;;;17.60;99.90;;;;;;5072303;28;20178;-60
2022/06/29 00:44:04;;;;;;;22.33;13.20;;;17.60;99.90;;;;;;5072948;28;20300;-60
2022/06/29 00:46:30;;;;;;;18.20;12.57;;;17.60;99.90;;;;;;5073337;28;20272;-59
2022/06/29 00:48:56;;;;;;;18.53;11.90;;;17.60;99.90;;;;;;5073014;28;20677;-59
2022/06/29 00:51:23;;;;;;;17.50;11.73;;;17.60;99.90;;;;;;5055723;28;20192;-59
2022/06/29 00:53:52;;;;;;;20.73;11.83;;;17.50;99.90;;;;;;5073100;28;20212;-59
2022/06/29 00:56:19;;;;;;;19.90;11.00;;;17.50;99.90;;;;;;5073677;28;20181;-59
2022/06/29 00:58:46;;;;;;;16.10;11.77;;;17.40;99.90;;;;;;5073029;28;20239;-58
2022/06/29 01:01:15;;;;;;;22.17;11.90;;;17.40;99.90;;;;;;5073487;28;20239;-59
2022/06/29 01:03:40;;;;;;;14.60;10.53;;;17.40;99.90;;;;;;5073149;28;20629;-59
2022/06/29 01:06:06;;;;;;;23.03;10.63;;;17.50;99.90;;;;;;5072945;28;20229;-59
2022/06/29 01:08:32;;;;;;;14.67;9.60;;;17.50;99.90;;;;;;5077201;28;20188;-59
2022/06/29 01:10:58;;;;;;;17.60;9.40;;;17.60;99.90;;;;;;5093105;28;20565;-59
2022/06/29 01:13:24;;;;;;;15.30;10.03;;;17.50;99.90;;;;;;5093455;28;20249;-59
2022/06/29 01:15:50;;;;;;;17.50;9.57;;;17.50;99.90;;;;;;5093049;28;20189;-58
2022/06/29 01:18:15;;;;;;;15.00;9.67;;;17.50;99.90;;;;;;5057832;28;20190;-58
2022/06/29 01:20:41;;;;;;;15.03;9.67;;;17.40;99.90;;;;;;5072688;28;20181;-59
2022/06/29 01:23:07;;;;;;;15.53;9.90;;;17.40;99.90;;;;;;5073121;28;20192;-59
2022/06/29 01:25:33;;;;;;;15.17;9.40;;;17.40;99.90;;;;;;5073246;28;20177;-58
2022/06/29 01:27:58;;;;;;;15.87;9.70;;;17.30;99.90;;;;;;5072885;28;20328;-58
2022/06/29 01:30:24;;;;;;;17.40;9.67;;;17.30;99.90;;;;;;5073119;28;20181;-58
2022/06/29 01:32:50;;;;;;;13.00;9.23;;;17.40;99.90;;;;;;5072513;28;20182;-58
2022/06/29 01:35:22;;;;;;;17.00;10.20;;;17.40;99.90;;;;;;5072753;28;20181;-58
2022/06/29 01:37:48;;;;;;;15.90;9.67;;;17.40;99.90;;;;;;5072573;28;20177;-58
2022/06/29 01:40:14;;;;;;;17.23;9.93;;;17.50;99.90;;;;;;5072873;28;20209;-58
2022/06/29 01:42:40;;;;;;;18.77;10.07;;;17.50;99.90;;;;;;5072360;28;20174;-58
2022/06/29 01:45:07;;;;;;;15.70;9.93;;;17.60;99.90;;;;;;5072559;28;20178;-58
2022/06/29 01:47:32;;;;;;;14.30;9.83;;;17.60;99.90;;;;;;5072233;28;20209;-58
2022/06/29 01:49:58;;;;;;;15.17;9.63;;;17.70;99.90;;;;;;5072379;28;20571;-58
2022/06/29 01:52:24;;;;;;;23.90;11.67;;;17.70;99.90;;;;;;5072795;28;20174;-58
2022/06/29 01:54:50;;;;;;;18.23;11.27;;;17.70;99.90;;;;;;5072124;28;20243;-58
2022/06/29 01:57:15;;;;;;;19.13;11.33;;;17.70;99.90;;;;;;5072482;28;20197;-58
2022/06/29 01:59:41;;;;;;;14.83;10.27;;;17.70;99.90;;;;;;5072041;28;20185;-58
2022/06/29 02:02:08;;;;;;;20.20;10.57;;;17.70;99.90;;;;;;5072041;28;20193;-58
2022/06/29 02:04:34;;;;;;;20.20;10.40;;;17.70;99.90;;;;;;5071838;28;20241;-58
2022/06/29 02:06:59;;;;;;;21.40;10.33;;;17.70;99.90;;;;;;5072180;28;20510;-58
2022/06/29 02:09:25;;;;;;;18.67;10.37;;;17.60;99.90;;;;;;5083498;28;20656;-58
2022/06/29 02:11:51;;;;;;;18.90;9.70;;;17.50;99.90;;;;;;5092085;28;20576;-58
2022/06/29 02:14:17;;;;;;;15.43;9.17;;;17.50;99.90;;;;;;5092347;28;20205;-58
2022/06/29 02:16:42;;;;;;;16.97;10.43;;;17.40;99.90;;;;;;5087185;28;20547;-58
2022/06/29 02:19:08;;;;;;;14.23;10.03;;;17.50;99.90;;;;;;5071702;28;20652;-58
2022/06/29 02:21:34;;;;;;;21.47;9.23;;;17.50;99.90;;;;;;5071746;28;20181;-59
2022/06/29 02:24:00;;;;;;;14.33;9.17;;;17.50;99.90;;;;;;5071820;28;20185;-58
2022/06/29 02:26:25;;;;;;;16.03;9.50;;;17.60;99.90;;;;;;5071928;28;20224;-58
2022/06/29 02:28:51;;;;;;;11.00;8.03;;;17.60;99.90;;;;;;5071532;28;20177;-58
2022/06/29 02:36:45;;;;;;;15.40;8.97;;;17.70;99.90;;;;;;5071648;28;20218;-58
2022/06/29 02:39:11;;;;;;;14.67;8.27;;;17.70;99.90;;;;;;5071540;28;20264;-58
2022/06/29 02:41:37;;;;;;;13.17;8.50;;;17.70;99.90;;;;;;5071642;28;20174;-58
2022/06/29 02:44:03;;;;;;;15.30;9.57;;;17.70;99.90;;;;;;5071405;28;20265;-58
2022/06/29 02:46:29;;;;;;;14.47;8.50;;;17.60;99.90;;;;;;5071483;28;20201;-58
2022/06/29 02:48:54;;;;;;;14.07;8.83;;;17.60;99.90;;;;;;5071345;28;20682;-58
2022/06/29 02:51:20;;;;;;;25.90;10.57;;;17.60;99.90;;;;;;5071464;28;20618;-58
2022/06/29 02:53:46;;;;;;;13.77;9.00;;;17.50;99.90;;;;;;5071338;28;20262;-58
2022/06/29 02:56:11;;;;;;;13.13;8.97;;;17.50;99.90;;;;;;5071350;28;20185;-58
2022/06/29 02:58:37;;;;;;;18.57;8.80;;;17.50;99.90;;;;;;5052638;28;20197;-57
2022/06/29 03:01:03;;;;;;;20.50;10.13;;;17.50;99.90;;;;;;5071065;28;20177;-58
2022/06/29 03:03:29;;;;;;;17.90;9.20;;;17.50;99.90;;;;;;5071380;28;20238;-58
2022/06/29 03:05:54;;;;;;;25.77;10.00;;;17.60;99.90;;;;;;5070682;28;20233;-58
2022/06/29 03:08:20;;;;;;;36.37;14.10;;;17.60;99.90;;;;;;5073400;28;20173;-58
2022/06/29 03:10:46;;;;;;;26.57;10.53;;;17.70;99.90;;;;;;5091122;28;20172;-58
2022/06/29 03:13:11;;;;;;;22.07;10.37;;;17.80;99.90;;;;;;5091251;28;20209;-58
2022/06/29 03:15:37;;;;;;;19.03;10.53;;;17.90;99.90;;;;;;5091561;28;20196;-58
2022/06/29 03:18:03;;;;;;;26.27;10.97;;;17.90;99.90;;;;;;5075346;28;20173;-58
2022/06/29 03:20:29;;;;;;;19.40;9.83;;;17.90;99.90;;;;;;5071198;28;20188;-59
2022/06/29 03:22:55;;;;;;;14.83;9.63;;;18.00;99.90;;;;;;5071040;28;20182;-58
2022/06/29 03:25:21;;;;;;;19.23;9.30;;;18.10;99.90;;;;;;5071119;28;20184;-58
2022/06/29 03:27:46;;;;;;;13.77;9.17;;;18.20;99.90;;;;;;5070585;28;20182;-58
2022/06/29 03:30:12;;;;;;;15.97;9.87;;;18.30;99.90;;;;;;5071014;28;20679;-59
2022/06/29 03:32:38;;;;;;;18.50;10.00;;;18.40;99.90;;;;;;5070806;28;20193;-58
2022/06/29 03:35:05;;;;;;;15.47;9.00;;;18.60;99.90;;;;;;5070576;28;20189;-58
2022/06/29 03:37:31;;;;;;;20.33;9.33;;;18.60;99.90;;;;;;5070845;28;20182;-58
2022/06/29 03:39:57;;;;;;;19.90;9.50;;;18.70;99.90;;;;;;5070749;28;20648;-58
2022/06/29 03:42:23;;;;;;;21.33;9.60;;;18.80;99.90;;;;;;5070460;28;20231;-57
2022/06/29 03:44:48;;;;;;;14.93;8.67;;;19.00;99.90;;;;;;5070665;28;20659;-58
2022/06/29 03:47:14;;;;;;;15.27;9.48;;;19.10;99.90;;;;;;5052324;28;20182;-58
2022/06/29 03:49:40;;;;;;;13.20;9.07;;;19.20;99.90;;;;;;5070497;28;20185;-58
2022/06/29 03:52:06;;;;;;;19.45;10.27;;;19.30;99.90;;;;;;5069978;28;20533;-58
2022/06/29 03:54:32;;;;;;;14.27;9.20;;;19.40;99.90;;;;;;5070128;28;20336;-57
2022/06/29 03:56:58;;;;;;;19.08;9.98;;;19.50;99.90;;;;;;5068895;28;20181;-57
2022/06/29 03:59:24;;;;;;;13.35;8.98;;;19.60;99.90;;;;;;5070612;28;20679;-58
2022/06/29 04:01:50;;;;;;;15.88;8.40;;;19.60;99.90;;;;;;5070450;28;20675;-58
2022/06/29 04:04:16;;;;;;;12.77;7.43;;;19.70;99.90;;;;;;5052594;28;20197;-58
2022/06/29 04:06:42;;;;;;;14.30;7.53;;;19.80;99.90;;;;;;5070439;28;20220;-58
2022/06/29 04:09:08;;;;;;;12.68;8.75;;;19.80;99.90;;;;;;5078904;28;20234;-59
2022/06/29 04:11:49;;;;;;;12.60;7.45;;;19.90;99.90;;;;;;5094867;28;20188;-59
2022/06/29 04:14:19;;;;;;;16.63;8.45;;;20.00;99.90;;;;;;5094203;28;20625;-59
2022/06/29 04:16:45;;;;;;;14.70;9.75;;;20.10;99.90;;;;;;5071040;28;20181;-61
2022/06/29 04:19:11;;;;;;;13.18;8.88;;;20.30;99.90;;;;;;5074205;28;20178;-59
2022/06/29 04:21:37;;;;;;;22.83;11.30;;;20.30;99.90;;;;;;5073687;28;20170;-59
2022/06/29 04:24:04;;;;;;;20.90;10.25;;;20.30;99.90;;;;;;5073289;28;20186;-59
2022/06/29 04:26:29;;;;;;;13.30;9.00;;;20.20;99.90;;;;;;5073679;28;20577;-59
2022/06/29 04:28:55;;;;;;;22.98;11.25;;;20.20;99.90;;;;;;5073223;28;20303;-59
2022/06/29 04:31:21;;;;;;;14.90;10.10;;;20.30;99.90;;;;;;5073592;28;20264;-60
2022/06/29 04:33:47;;;;;;;13.93;9.88;;;20.30;99.90;;;;;;5073126;28;20290;-59
2022/06/29 04:36:12;;;;;;;27.52;11.98;;;20.30;99.90;;;;;;5073126;28;20193;-59
2022/06/29 04:38:38;;;;;;;23.45;11.85;;;20.40;99.90;;;;;;5073146;28;20213;-59
2022/06/29 04:41:04;;;;;;;22.88;11.77;;;20.50;99.90;;;;;;5073095;28;20647;-58
2022/06/29 04:43:30;;;;;;;18.27;9.95;;;20.60;99.90;;;;;;5073331;28;20192;-59
2022/06/29 04:48:41;;;;;;;28.73;12.38;;;20.90;99.90;;;;;;5073032;28;20655;-58
2022/06/29 04:51:07;;;;;;;25.58;11.70;;;21.20;99.90;;;;;;5072308;28;20178;-59
2022/06/29 04:53:33;;;;;;;21.10;10.38;;;21.20;99.90;;;;;;5072372;28;20696;-58
2022/06/29 04:55:59;;;;;;;19.33;11.63;;;21.30;99.90;;;;;;5072075;28;20188;-58
2022/06/29 04:58:25;;;;;;;15.73;10.55;;;21.30;99.90;;;;;;5072680;28;20278;-59
2022/06/29 05:00:51;;;;;;;22.33;9.73;;;21.30;99.90;;;;;;5072430;28;20691;-59
2022/06/29 05:03:17;;;;;;;18.60;10.07;;;21.30;99.90;;;;;;5054612;28;20194;-59
2022/06/29 05:05:42;;;;;;;14.93;9.82;;;21.50;99.90;;;;;;5072178;28;20335;-58
2022/06/29 05:08:08;;;;;;;19.75;9.48;;;21.60;99.90;;;;;;5072508;28;20209;-58
2022/06/29 05:10:34;;;;;;;24.40;11.98;;;21.70;99.90;;;;;;5092607;28;20225;-58
2022/06/29 05:13:00;;;;;;;21.92;10.18;;;21.90;99.90;;;;;;5092151;28;20236;-61
2022/06/29 05:15:26;;;;;;;15.45;7.65;;;22.10;99.90;;;;;;5092760;28;20185;-59
2022/06/29 05:17:52;;;;;;;10.98;7.55;;;22.20;99.90;;;;;;5079527;28;20349;-63
2022/06/29 05:20:20;;;;;;;15.00;8.25;;;22.30;99.90;;;;;;5081861;28;20225;-62
2022/06/29 05:22:46;;;;;;;20.98;7.82;;;22.50;99.90;;;;;;5080826;28;20556;-69
2022/06/29 05:25:12;;;;;;;16.52;7.15;;;22.60;99.90;;;;;;5080934;28;20189;-59
2022/06/29 05:27:37;;;;;;;30.23;9.65;;;22.60;99.90;;;;;;5081515;28;20605;-59
2022/06/29 05:30:03;;;;;;;24.60;9.55;;;22.80;99.90;;;;;;5080727;28;20188;-59
2022/06/29 05:32:29;;;;;;;17.10;8.25;;;23.00;99.90;;;;;;5080683;28;20189;-64
2022/06/29 05:34:55;;;;;;;11.02;8.25;;;23.00;99.90;;;;;;5080872;28;20383;-59
2022/06/29 05:37:22;;;;;;;13.63;8.00;;;23.00;99.90;;;;;;5080454;28;20225;-59
2022/06/29 05:39:48;;;;;;;22.05;9.48;;;23.20;99.90;;;;;;5080181;28;20197;-64
2022/06/29 05:42:14;;;;;;;14.82;8.48;;;23.30;99.90;;;;;;5061840;28;20291;-59
2022/06/29 05:44:41;;;;;;;14.02;7.90;;;23.30;99.90;;;;;;5080537;28;20278;-59
2022/06/29 05:47:07;;;;;;;15.85;6.88;;;23.40;99.90;;;;;;5079956;28;20197;-60
2022/06/29 05:49:36;;;;;;;16.27;8.07;;;23.50;99.90;;;;;;5079851;28;20212;-59
2022/06/29 05:52:03;;;;;;;16.17;8.25;;;23.70;99.90;;;;;;5079996;28;20276;-59
2022/06/29 05:54:29;;;;;;;16.55;8.63;;;23.80;99.90;;;;;;5079552;28;20227;-60
2022/06/29 05:56:55;;;;;;;16.13;8.45;;;23.90;99.90;;;;;;5080619;28;20189;-59
2022/06/29 05:59:20;;;;;;;14.20;8.07;;;24.00;99.90;;;;;;5080656;28;20188;-59
2022/06/29 06:01:46;;;;;;;21.08;8.32;;;24.10;99.90;;;;;;5079779;28;20217;-59
2022/06/29 06:04:12;;;;;;;17.95;8.27;;;24.20;99.90;;;;;;5079364;28;20201;-61
2022/06/29 06:06:37;;;;;;;17.15;8.68;;;24.40;99.90;;;;;;5080505;28;20196;-59
2022/06/29 06:09:03;;;;;;;11.00;7.63;;;24.60;99.90;;;;;;5080152;28;20185;-60
2022/06/29 06:11:29;;;;;;;11.68;8.02;;;24.50;99.90;;;;;;5078265;28;20902;-60
2022/06/29 06:13:55;;;;;;;10.23;7.50;;;24.50;99.90;;;;;;5060031;28;20217;-59
2022/06/29 06:16:20;;;;;;;10.70;7.28;;;24.60;99.90;;;;;;5079220;28;20559;-60
2022/06/29 06:18:46;;;;;;;9.82;6.47;;;24.70;99.90;;;;;;5080099;28;20644;-60
2022/06/29 06:21:13;;;;;;;12.98;7.15;;;24.60;99.90;;;;;;5079820;28;20383;-60
2022/06/29 06:23:38;;;;;;;15.38;6.93;;;24.70;99.90;;;;;;5079923;28;20196;-60
2022/06/29 06:26:04;;;;;;;13.75;8.65;;;24.70;99.80;;;;;;5079600;28;20203;-59
2022/06/29 06:28:30;;;;;;;15.65;6.97;;;24.80;99.80;;;;;;5079880;28;20189;-60
2022/06/29 06:30:56;;;;;;;14.75;6.00;;;24.90;99.20;;;;;;5079531;28;20191;-60
2022/06/29 06:33:22;;;;;;;15.65;7.85;;;25.00;99.10;;;;;;5079075;28;20617;-62
2022/06/29 06:35:49;;;;;;;15.77;7.10;;;25.10;99.00;;;;;;5079541;28;20217;-61
2022/06/29 06:38:15;;;;;;;20.05;7.50;;;25.30;98.80;;;;;;5079653;28;20255;-61
2022/06/29 06:43:26;;;;;;;15.40;8.55;;;25.60;98.40;;;;;;5064407;28;20547;-60
2022/06/29 06:45:51;;;;;;;15.20;6.82;;;25.80;98.80;;;;;;5079442;28;20189;-62
2022/06/29 06:48:17;;;;;;;12.95;6.63;;;25.90;98.10;;;;;;5080077;28;20181;-62
2022/06/29 06:50:43;;;;;;;26.40;7.50;;;26.00;97.10;;;;;;5079281;28;20192;-59
2022/06/29 06:53:09;;;;;;;16.33;7.10;;;26.20;97.10;;;;;;5060175;28;20223;-61
2022/06/29 06:55:35;;;;;;;20.90;7.50;;;26.20;97.00;;;;;;5078228;28;20196;-60
2022/06/29 06:58:04;;;;;;;16.30;7.63;;;26.20;97.10;;;;;;5078976;28;20200;-60
2022/06/29 07:00:30;;;;;;;14.20;7.85;;;26.20;96.70;;;;;;5079710;28;20192;-63
2022/06/29 07:02:56;;;;;;;11.95;6.60;;;26.30;97.10;;;;;;5060912;28;20647;-61
2022/06/29 07:05:21;;;;;;;15.95;7.35;;;26.40;96.70;;;;;;5079431;28;20254;-61
2022/06/29 07:07:47;;;;;;;14.48;6.57;;;26.50;96.10;;;;;;5079910;28;20269;-61
2022/06/29 07:10:13;;;;;;;10.35;6.55;;;26.60;95.90;;;;;;5078927;28;20668;-59
2022/06/29 07:12:39;;;;;;;22.45;7.00;;;26.70;95.80;;;;;;5079205;28;20199;-61
2022/06/29 07:15:05;;;;;;;10.85;6.10;;;26.90;95.40;;;;;;5078651;28;20208;-61
2022/06/29 07:17:31;;;;;;;12.02;5.93;;;27.00;94.80;;;;;;5061069;28;20212;-61
2022/06/29 07:19:57;;;;;;;13.18;5.47;;;27.10;94.30;;;;;;5076206;28;20642;-60
2022/06/29 07:22:23;;;;;;;16.60;6.28;;;27.30;92.60;;;;;;5043377;28;20188;-61
2022/06/29 07:24:49;;;;;;;20.33;11.52;;;27.50;92.30;;;;;;5078239;28;20250;-63
2022/06/29 07:27:15;;;;;;;14.05;6.70;;;27.60;92.90;;;;;;5077674;28;20194;-61
2022/06/29 07:29:42;;;;;;;27.73;6.07;;;27.70;92.40;;;;;;5079883;28;20185;-59
2022/06/29 07:32:08;;;;;;;12.70;7.43;;;27.80;90.50;;;;;;5078343;28;20531;-62
2022/06/29 07:34:34;;;;;;;18.17;5.30;;;28.00;90.40;;;;;;5078619;28;20213;-60
2022/06/29 07:37:00;;;;;;;11.00;4.80;;;28.20;88.30;;;;;;5079298;28;20189;-59
2022/06/29 07:39:26;;;;;;;9.40;5.40;;;28.20;88.20;;;;;;5079262;28;20192;-62
2022/06/29 07:41:51;;;;;;;9.48;4.80;;;28.30;86.30;;;;;;5078227;28;20197;-61
2022/06/29 07:44:17;;;;;;;8.77;3.75;;;28.30;86.30;;;;;;5078800;28;20185;-60
2022/06/29 07:46:43;;;;;;;10.40;4.03;;;28.30;84.70;;;;;;5081713;28;20535;-61
2022/06/29 07:49:08;;;;;;;10.00;4.57;;;28.40;83.80;;;;;;5082200;28;20189;-59
2022/06/29 07:51:35;;;;;;;12.13;5.45;;;28.50;83.60;;;;;;5082068;28;20264;-60
2022/06/29 07:54:00;;;;;;;11.07;5.10;;;28.70;87.80;;;;;;5081044;28;20589;-60
2022/06/29 07:56:26;;;;;;;7.10;4.40;;;28.80;86.70;;;;;;5082436;28;20189;-60
2022/06/29 07:58:52;;;;;;;13.13;4.80;;;29.00;83.80;;;;;;5082513;28;20181;-62
2022/06/29 08:01:18;;;;;;;15.20;5.38;;;29.10;83.70;;;;;;5082136;28;20188;-60
2022/06/29 08:03:43;;;;;;;13.52;5.57;;;29.20;82.90;;;;;;5082342;28;20534;-62
2022/06/29 08:06:10;;;;;;;13.93;6.10;;;29.30;84.10;;;;;;5082118;28;20240;-62
2022/06/29 08:08:35;;;;;;;12.80;6.32;;;29.40;84.10;;;;;;5082181;28;20209;-60
2022/06/29 08:11:02;;;;;;;13.48;6.22;;;29.40;83.90;;;;;;5062712;28;20635;-62
2022/06/29 08:13:28;;;;;;;31.92;8.38;;;29.50;82.90;;;;;;5081664;28;20275;-61
2022/06/29 08:15:54;;;;;;;8.00;5.45;;;29.60;82.70;;;;;;5081864;28;20578;-62
2022/06/29 08:18:19;;;;;;;11.43;5.00;;;29.70;82.10;;;;;;5081319;28;20277;-61
2022/06/29 08:20:45;;;;;;;12.45;5.10;;;29.70;81.70;;;;;;5082237;28;20201;-60
2022/06/29 08:23:11;;;;;;;14.82;5.57;;;29.80;81.20;;;;;;5081333;28;20208;-62
2022/06/29 08:25:37;;;;;;;11.25;4.60;;;29.90;81.70;;;;;;5080680;28;20188;-61
2022/06/29 08:28:03;;;;;;;8.57;4.97;;;29.80;79.90;;;;;;5080917;28;20573;-62
2022/06/29 08:30:29;;;;;;;11.15;5.60;;;29.60;79.80;;;;;;5080969;28;20191;-60
2022/06/29 08:32:55;;;;;;;14.07;6.13;;;29.50;80.60;;;;;;5081343;28;20619;-63
2022/06/29 08:35:21;;;;;;;15.18;7.00;;;29.50;80.90;;;;;;5081578;28;20249;-61
2022/06/29 08:37:47;;;;;;;10.00;5.47;;;29.80;81.40;;;;;;5081212;28;20182;-61
2022/06/29 08:40:15;;;;;;;11.68;4.60;;;29.90;79.00;;;;;;5081504;28;20324;-62
2022/06/29 08:42:41;;;;;;;11.43;4.97;;;29.80;78.70;;;;;;5081828;28;20186;-60
2022/06/29 08:45:09;;;;;;;15.75;7.63;;;29.80;81.00;;;;;;5081149;28;20324;-61
2022/06/29 08:47:35;;;;;;;21.75;7.30;;;29.80;81.00;;;;;;5081949;28;20249;-62
2022/06/29 08:50:09;;;;;;;155.68;87.63;;;29.80;80.90;;;;;;5082327;28;20343;-63
2022/06/29 08:52:36;;;;;;;137.55;76.28;;;29.90;80.50;;;;;;5081623;28;20209;-61
2022/06/29 08:55:07;;;;;;;33.30;13.43;;;30.00;80.70;;;;;;5080587;28;20217;-61
2022/06/29 08:57:38;;;;;;;22.23;10.82;;;30.10;80.30;;;;;;5079466;28;20549;-64
2022/06/29 09:00:06;;;;;;;14.82;5.72;;;30.20;79.70;;;;;;5081265;28;20189;-62
2022/06/29 09:02:32;;;;;;;13.40;5.40;;;30.40;78.50;;;;;;5081186;28;20186;-61
2022/06/29 09:04:58;;;;;;;18.20;5.57;;;30.50;78.00;;;;;;5080687;28;20244;-61
2022/06/29 09:07:25;;;;;;;17.40;5.85;;;30.50;77.60;;;;;;5080823;28;20185;-61
2022/06/29 09:10:04;;;;;;;10.60;5.47;;;30.60;77.60;;;;;;5081070;28;20552;-60
2022/06/29 09:12:34;;;;;;;18.80;5.68;;;30.60;77.60;;;;;;5080756;28;20254;-61
2022/06/29 09:15:01;;;;;;;20.73;6.63;;;30.70;77.40;;;;;;5080827;28;20247;-61
2022/06/29 09:17:30;;;;;;;11.02;5.35;;;30.80;75.30;;;;;;5080575;28;20239;-62
2022/06/29 09:19:56;;;;;;;7.30;4.75;;;30.90;74.30;;;;;;5080943;28;20182;-62
2022/06/29 09:22:22;;;;;;;12.00;6.03;;;31.00;73.70;;;;;;5080720;28;20197;-62
2022/06/29 09:24:49;;;;;;;12.55;5.25;;;31.00;74.30;;;;;;5081128;28;20276;-60
2022/06/29 09:27:15;;;;;;;18.90;6.65;;;30.80;74.00;;;;;;5080427;28;20568;-60
2022/06/29 09:29:42;;;;;;;12.13;5.75;;;30.70;74.00;;;;;;5080380;28;20323;-60
2022/06/29 09:32:28;;;;;;;12.20;5.72;;;30.80;74.20;;;;;;5080688;28;20181;-62
2022/06/29 09:34:54;;;;;;;11.68;4.88;;;31.00;73.50;;;;;;5080746;28;20301;-60
2022/06/29 09:37:24;;;;;;;8.80;5.13;;;31.00;73.00;;;;;;5079869;28;20197;-61
2022/06/29 09:39:54;;;;;;;6.80;5.40;;;31.00;72.60;;;;;;5061646;28;20535;-61
2022/06/29 09:42:25;;;;;;;16.38;6.30;;;30.80;72.90;;;;;;5080103;28;20193;-62
2022/06/29 09:44:51;;;;;;;10.38;5.65;;;30.80;73.80;;;;;;5079786;28;20667;-62
2022/06/29 09:47:20;;;;;;;10.13;5.57;;;30.90;73.70;;;;;;5080371;28;20283;-62
2022/06/29 09:49:53;;;;;;;10.45;5.40;;;31.30;73.40;;;;;;5079433;28;20216;-61
2022/06/29 09:52:20;;;;;;;18.52;7.47;;;31.40;72.80;;;;;;5080108;28;20551;-61
2022/06/29 09:54:51;;;;;;;13.35;4.72;;;31.70;73.70;;;;;;5080464;28;20209;-61
2022/06/29 09:57:19;;;;;;;7.70;4.50;;;31.80;71.10;;;;;;5061939;28;20291;-62
2022/06/29 10:02:51;;;;;;;12.18;3.53;;;31.70;71.30;;;;;;5079760;28;20439;-61
2022/06/29 10:05:20;;;;;;;9.63;2.85;;;31.70;70.10;;;;;;5080272;28;20301;-63
2022/06/29 10:07:48;;;;;;;6.28;2.42;;;31.80;70.30;;;;;;5080239;28;20284;-63
2022/06/29 10:10:17;;;;;;;8.48;2.92;;;31.70;70.50;;;;;;5079317;28;20193;-62
2022/06/29 10:15:55;;;;;;;9.10;3.65;;;31.70;70.20;;;;;;5079883;28;20676;-60
2022/06/29 10:19:14;;;;;;;3.40;1.55;;;31.80;70.00;;;;;;5078918;28;20261;-60
2022/06/29 10:21:40;;;;;;;1.25;1.08;;;31.90;68.90;;;;;;4997322;28;20283;-60
2022/06/29 10:24:07;;;;;;;1.55;1.27;;;31.60;68.60;;;;;;5072861;28;20300;-62
2022/06/29 10:26:36;;;;;;;7.50;1.38;;;31.40;70.20;;;;;;5079773;28;20196;-63
2022/06/29 10:29:07;;;;;;;1.88;1.20;;;31.50;69.50;;;;;;5079421;28;20192;-61
2022/06/29 10:32:06;;;;;;;2.45;0.90;;;31.50;69.10;;;;;;5080050;28;20196;-61
2022/06/29 10:34:34;;;;;;;0.45;0.45;;;31.90;68.20;;;;;;5073651;28;20233;-62
2022/06/29 10:37:05;;;;;;;1.25;1.00;;;32.00;68.00;;;;;;5079162;28;20264;-61
2022/06/29 10:39:49;;;;;;;0.52;0.43;;;32.00;66.80;;;;;;5079414;28;20189;-62
2022/06/29 10:45:13;;;;;;;0.08;0.08;;;32.10;66.60;;;;;;5079169;28;20199;-62
2022/06/29 10:47:39;;;;;;;1.50;1.40;;;32.20;66.40;;;;;;5079182;28;20639;-61
2022/06/29 10:50:18;;;;;;;0.95;0.95;;;32.50;66.10;;;;;;5079169;28;20189;-63
2022/06/29 10:52:44;;;;;;;1.63;1.23;;;32.60;65.30;;;;;;5079614;28;20655;-63
2022/06/29 10:55:11;;;;;;;1.17;0.80;;;32.50;65.20;;;;;;5079635;28;20212;-63
2022/06/29 10:57:38;;;;;;;2.00;0.98;;;32.50;65.30;;;;;;5079381;28;20619;-62
2022/06/29 11:00:08;;;;;;;1.15;0.90;;;32.50;65.30;;;;;;5079047;28;20636;-62
2022/06/29 11:02:34;;;;;;;2.10;0.90;;;32.70;63.30;;;;;;5079039;28;20205;-63
2022/06/29 11:05:01;;;;;;;1.33;1.25;;;33.00;60.20;;;;;;5057887;28;20616;-65
2022/06/29 11:12:56;;;;;;;0.05;0.05;;;33.80;58.20;;;;;;5060590;28;20228;-63
2022/06/29 11:15:41;;;;;;;0.30;0.30;;;34.10;59.40;;;;;;5058569;28;20730;-62
2022/06/29 11:18:30;;;;;;;0.30;0.30;;;34.40;59.90;;;;;;5057632;28;20551;-62
2022/06/29 11:21:04;;;;;;;0.05;0.05;;;34.60;58.50;;;;;;5062518;28;20182;-66
2022/06/29 11:23:34;;;;;;;0.60;0.32;;;35.10;57.40;;;;;;5063431;28;20657;-64
2022/06/29 11:26:01;;;;;;;0.28;0.17;;;35.80;55.50;;;;;;5061106;28;20935;-64
2022/06/29 11:28:29;;;;;;;0.98;0.82;;;36.70;54.10;;;;;;5061903;28;20205;-63
2022/06/29 11:31:05;;;;;;;0.00;0.00;;;38.30;53.10;;;;;;5061103;28;20181;-66
2022/06/29 11:33:33;;;;;;;0.43;0.35;;;39.70;50.50;;;;;;5060704;28;20220;-63
2022/06/29 11:36:10;;;;;;;0.40;0.20;;;41.10;47.20;;;;;;5061450;28;20193;-65
2022/06/29 11:38:47;;;;;;;0.30;0.30;;;42.50;44.60;;;;;;5062001;28;20350;-63
2022/06/29 11:41:14;;;;;;;0.35;0.35;;;43.10;43.30;;;;;;5062529;28;20595;-63
2022/06/29 11:43:40;;;;;;;2.63;1.55;;;43.30;41.10;;;;;;5062784;28;20201;-62
2022/06/29 11:46:21;;;;;;;0.10;0.10;;;43.70;40.20;;;;;;5063082;28;20188;-63
2022/06/29 11:51:36;;;;;;;0.40;0.40;;;44.60;37.20;;;;;;5063230;28;20262;-64
2022/06/29 11:54:06;;;;;;;0.10;0.10;;;44.60;35.90;;;;;;5062568;28;20201;-63
2022/06/29 11:56:32;;;;;;;0.30;0.30;;;44.00;36.20;;;;;;5063022;28;20593;-63
2022/06/29 11:59:04;;;;;;;0.50;0.50;;;44.60;35.60;;;;;;5062488;28;20193;-62
2022/06/29 12:01:30;;;;;;;0.10;0.10;;;44.70;34.60;;;;;;5062476;28;20180;-64
2022/06/29 12:04:01;;;;;;;4.57;0.60;;;44.10;35.10;;;;;;5062838;28;20672;-62
2022/06/29 12:06:29;;;;;;;1.35;1.23;;;44.80;35.50;;;;;;5042475;28;20228;-63
2022/06/29 12:08:56;;;;;;;0.95;0.63;;;45.50;33.80;;;;;;5042533;28;20191;-65
2022/06/29 12:11:23;;;;;;;2.72;0.88;;;46.00;34.10;;;;;;5042551;28;20193;-65
2022/06/29 12:13:49;;;;;;;0.45;0.45;;;46.20;32.90;;;;;;5042713;28;20221;-63
2022/06/29 12:16:16;;;;;;;0.60;0.60;;;46.80;32.30;;;;;;5042041;28;20186;-64
2022/06/29 12:18:42;;;;;;;0.68;0.68;;;46.30;32.00;;;;;;5043203;28;20209;-64
2022/06/29 12:21:09;;;;;;;0.52;0.52;;;46.20;32.10;;;;;;5042631;28;20638;-65
2022/06/29 12:23:36;;;;;;;0.10;0.10;;;46.80;32.20;;;;;;5043914;28;20648;-63
2022/06/29 12:26:03;;;;;;;0.30;0.30;;;47.70;30.70;;;;;;5042897;28;20186;-64
2022/06/29 12:28:28;;;;;;;0.40;0.40;;;48.30;29.60;;;;;;5042142;28;20214;-64
2022/06/29 12:30:54;;;;;;;0.30;0.30;;;48.20;28.90;;;;;;5042731;28;20221;-63
2022/06/29 12:33:20;;;;;;;0.20;0.20;;;49.40;28.80;;;;;;5041819;28;20245;-63
2022/06/29 12:35:47;;;;;;;0.40;0.40;;;49.70;28.80;;;;;;5042697;28;20211;-65
2022/06/29 12:38:13;;;;;;;1.55;1.27;;;49.60;28.40;;;;;;5041641;28;20521;-64
2022/06/29 12:40:39;;;;;;;2.13;0.82;;;50.40;27.30;;;;;;5041659;28;20213;-63
2022/06/29 12:43:05;;;;;;;0.45;0.45;;;49.80;27.30;;;;;;5042074;28;20196;-63
2022/06/29 12:45:32;;;;;;;0.20;0.20;;;50.30;26.60;;;;;;5041750;28;20194;-62
2022/06/29 12:47:58;;;;;;;0.20;0.20;;;50.60;26.60;;;;;;5042478;28;20209;-64
2022/06/29 12:50:24;;;;;;;0.20;0.20;;;50.10;26.50;;;;;;5041525;28;20232;-65
2022/06/29 12:52:51;;;;;;;0.20;0.20;;;49.70;26.80;;;;;;5042442;28;20269;-64
2022/06/29 12:55:18;;;;;;;0.30;0.30;;;50.10;26.50;;;;;;5041707;28;20221;-62
2022/06/29 12:57:45;;;;;;;0.75;0.60;;;50.40;27.10;;;;;;5041292;28;20236;-66
2022/06/29 13:00:12;;;;;;;0.17;0.17;;;50.20;26.70;;;;;;5041562;28;20190;-64
2022/06/29 13:02:38;;;;;;;0.20;0.20;;;50.40;26.60;;;;;;5041826;28;20185;-63
2022/06/29 13:05:05;;;;;;;2.47;0.93;;;50.60;26.60;;;;;;5059382;28;20229;-64